Hines Creek, Canada
Current Conditions -  °F | °C
As of 3:00 PM on Saturday 25 Oct 2014 (Local Time) from CYPE Reporting Station
Overcast Overcast  
Wind Chill: 30°   Ceiling: 21000
Heat Index: 37°   Visibility: 15mi
Dew Point: 32°   Wind: 12mph
Humidity: 81%   Direction: 50°NE
Pressure: 29.8"   Gusts: NA
Location:  56.23°N, 118.6°W
Report Text: CYPE 252100Z 05010KT 15SM OVC210 03/M00 A2980 RMK CI8 SLP118
Loading
Personal Weather Stations






























Interactive Weather Map New forecast layout! Learn more

10-Day Weather Forecast

Advertisements
Track Severe Weather on mobile